Time;durP1;ratioP1;P1;durP2;ratioP2;P2;SDS_P1;SDS_P2;PMS_P1;PMS_P2;Temp;Humidity;BMP_temperature;BMP_pressure;BME280_temperature;BME280_humidity;BME280_pressure;Samples;Min_cycle;Max_cycle;Signal;HPM_P1;HPM_P2
2022/01/22 00:02:15;;;;;;;;;;;;;;;4.89;64.42;101444.31;6097937;23;1445;-96
2022/01/22 00:04:51;;;;;;;;;;;;;;;4.88;64.39;101442.63;6122677;23;1881;-96
2022/01/22 00:07:22;;;;;;;;;;;;;;;4.89;64.33;101447.81;6097657;23;1276;-96
2022/01/22 00:09:58;;;;;;;;;;;;;;;4.90;64.28;101443.31;6123904;23;997;-96
2022/01/22 00:12:44;;;;;;;;;;;;;;;4.89;64.33;101450.50;6121211;23;969;-96
2022/01/22 00:15:18;;;;;;;;;;;;;;;4.88;64.49;101443.50;6098570;23;1358;-96
2022/01/22 00:17:52;;;;;;;;;;;;;;;4.88;64.35;101448.81;6098050;23;1255;-96
2022/01/22 00:20:21;;;;;;;;;;;;;;;4.89;64.30;101447.81;6097350;23;1428;-96
2022/01/22 00:22:50;;;;;;;;;;;;;;;4.90;64.28;101457.50;6098543;23;1045;-96
2022/01/22 00:25:21;;;;;;;;;;;;;;;4.90;64.31;101459.31;6122999;23;1874;-96
2022/01/22 00:27:54;;;;;;;;;;;;;;;4.91;64.16;101463.66;6098592;23;846;-96
2022/01/22 00:30:33;;;;;;;;;;;;;;;4.91;64.17;101458.31;6123782;23;870;-96
2022/01/22 00:33:01;;;;;;;;;;;;;;;4.92;64.21;101460.84;6097256;23;1360;-96
2022/01/22 00:35:31;;;;;;;;;;;;;;;4.91;64.35;101456.50;6098980;23;1451;-96
2022/01/22 00:38:03;;;;;;;;;;;;;;;4.91;64.20;101450.31;6098329;23;1175;-96
2022/01/22 00:43:12;;;;;;;;;;;;;;;4.92;64.20;101441.31;6097704;23;1922;-96
2022/01/22 00:45:42;;;;;;;;;;;;;;;4.95;64.12;101441.00;6098889;23;1194;-96
2022/01/22 00:48:13;;;;;;;;;;;;;;;4.92;64.13;101435.97;6122824;23;1230;-96
2022/01/22 00:50:41;;;;;;;;;;;;;;;4.92;64.32;101442.16;6098502;23;1250;-96
2022/01/22 00:53:15;;;;;;;;;;;;;;;4.94;64.27;101445.50;6098079;23;1128;-96
2022/01/22 00:55:49;;;;;;;;;;;;;;;4.95;64.04;101447.16;6123617;23;962;-96
2022/01/22 00:58:17;;;;;;;;;;;;;;;4.97;63.91;101447.84;6096807;23;1317;-96
2022/01/22 01:00:45;;;;;;;;;;;;;;;4.95;64.27;101438.34;6097902;23;1237;-96
2022/01/22 01:03:22;;;;;;;;;;;;;;;4.95;64.03;101449.00;6098477;23;1874;-96
2022/01/22 01:05:50;;;;;;;;;;;;;;;4.99;64.04;101453.03;6098097;23;1391;-96
2022/01/22 01:08:28;;;;;;;;;;;;;;;4.96;64.00;101443.50;6095880;23;1360;-96
2022/01/22 01:10:57;;;;;;;;;;;;;;;4.95;64.00;101441.00;6097905;23;1338;-96
2022/01/22 01:13:28;;;;;;;;;;;;;;;4.96;64.05;101442.66;6097406;23;1360;-96
2022/01/22 01:16:00;;;;;;;;;;;;;;;4.96;64.29;101443.50;6097834;23;1377;-96
2022/01/22 01:32:29;;;;;;;;;;;;;;;5.01;64.01;101432.34;6096440;23;1381;-96
2022/01/22 01:37:41;;;;;;;;;;;;;;;5.02;63.93;101439.34;6096477;23;1303;-96
2022/01/22 01:40:14;;;;;;;;;;;;;;;5.03;64.06;101453.53;6095542;23;1391;-96
2022/01/22 01:42:49;;;;;;;;;;;;;;;4.99;64.02;101451.19;6096147;23;1432;-96
2022/01/22 01:45:18;;;;;;;;;;;;;;;5.00;64.12;101457.38;6096796;23;1873;-96
2022/01/22 01:47:50;;;;;;;;;;;;;;;4.99;64.15;101445.00;6121653;23;854;-96
2022/01/22 01:50:19;;;;;;;;;;;;;;;5.01;64.05;101448.38;6121780;23;983;-96
2022/01/22 01:52:51;;;;;;;;;;;;;;;5.04;64.13;101439.19;6095551;23;1633;-96
2022/01/22 01:55:33;;;;;;;;;;;;;;;5.04;64.07;101440.03;6096340;23;1245;-96
2022/01/22 01:57:59;;;;;;;;;;;;;;;5.03;64.13;101441.03;6096481;23;1566;-96
2022/01/22 02:00:30;;;;;;;;;;;;;;;5.05;63.98;101444.38;6097066;23;1442;-96
2022/01/22 02:02:59;;;;;;;;;;;;;;;5.04;64.09;101441.88;6097435;23;1326;-96
2022/01/22 02:05:34;;;;;;;;;;;;;;;5.03;64.17;101449.06;6096961;23;1878;-96
2022/01/22 02:08:02;;;;;;;;;;;;;;;5.02;64.08;101450.03;6096250;23;1315;-96
2022/01/22 02:10:33;;;;;;;;;;;;;;;5.02;64.05;101444.69;6096993;23;1444;-96
2022/01/22 02:24:06;;;;;;;;;;;;;;;5.03;64.04;101441.03;6098885;23;1929;-96
2022/01/22 02:29:19;;;;;;;;;;;;;;;5.02;63.94;101450.03;6097664;23;1037;-96
2022/01/22 02:32:02;;;;;;;;;;;;;;;5.02;64.03;101450.03;6094770;23;1393;-96
2022/01/22 02:34:39;;;;;;;;;;;;;;;5.03;64.03;101457.06;6073561;23;1376;-96
2022/01/22 02:37:13;;;;;;;;;;;;;;;5.01;64.05;101457.22;6122255;23;1440;-96
2022/01/22 02:39:59;;;;;;;;;;;;;;;5.01;64.07;101451.03;6121091;23;949;-96
2022/01/22 02:42:32;;;;;;;;;;;;;;;5.01;64.16;101441.19;6097343;23;1490;-96
2022/01/22 02:45:06;;;;;;;;;;;;;;;4.99;64.12;101429.81;6073201;23;1870;-96
2022/01/22 02:47:37;;;;;;;;;;;;;;;4.99;64.08;101432.50;6091731;23;1402;-96
2022/01/22 02:50:12;;;;;;;;;;;;;;;5.00;64.07;101426.16;6097397;23;1029;-96
2022/01/22 02:52:42;;;;;;;;;;;;;;;5.00;64.09;101431.50;6096538;23;1485;-96
2022/01/22 02:55:12;;;;;;;;;;;;;;;5.00;64.24;101425.34;6097296;23;1298;-96
2022/01/22 02:57:46;;;;;;;;;;;;;;;4.99;64.08;101415.66;6096988;23;1289;-96
2022/01/22 03:00:16;;;;;;;;;;;;;;;4.98;64.13;101428.16;6097024;23;1478;-96
2022/01/22 03:05:24;;;;;;;;;;;;;;;4.98;64.14;101422.81;6096106;23;1929;-96
2022/01/22 03:07:54;;;;;;;;;;;;;;;4.96;64.28;101418.63;6095369;23;1526;-96
2022/01/22 03:10:29;;;;;;;;;;;;;;;4.95;64.31;101420.47;6096222;23;1561;-96
2022/01/22 03:18:40;;;;;;;;;;;;;;;4.96;64.18;101427.47;6081768;23;1269;-96
2022/01/22 03:21:28;;;;;;;;;;;;;;;4.97;64.20;101426.50;6095710;23;1082;-96
2022/01/22 03:29:37;;;;;;;;;;;;;;;4.93;64.27;101419.78;6096540;23;1255;-96
2022/01/22 03:32:23;;;;;;;;;;;;;;;4.92;64.40;101420.81;6092366;23;1372;-96
2022/01/22 03:34:57;;;;;;;;;;;;;;;4.92;64.26;101420.81;6095399;23;1205;-96
2022/01/22 03:37:28;;;;;;;;;;;;;;;4.91;64.36;101418.28;6094818;23;1258;-96
2022/01/22 03:39:56;;;;;;;;;;;;;;;4.92;64.48;101417.31;6094367;23;1507;-96
2022/01/22 03:42:25;;;;;;;;;;;;;;;4.92;64.24;101419.97;6094596;23;1148;-96
2022/01/22 03:44:53;;;;;;;;;;;;;;;4.91;64.21;101412.94;6094636;23;1905;-96
2022/01/22 03:47:23;;;;;;;;;;;;;;;4.90;64.41;101417.44;6093673;23;1313;-96
2022/01/22 03:49:50;;;;;;;;;;;;;;;4.92;64.22;101417.31;6092737;23;1444;-96
2022/01/22 03:52:19;;;;;;;;;;;;;;;4.90;64.21;101417.44;6092611;23;1270;-96
2022/01/22 03:54:55;;;;;;;;;;;;;;;4.91;64.21;101415.59;6118146;23;847;-96
2022/01/22 03:57:23;;;;;;;;;;;;;;;4.90;64.30;101419.28;6092239;23;1245;-96
2022/01/22 03:59:51;;;;;;;;;;;;;;;4.90;64.24;101420.13;6093343;23;1352;-96
2022/01/22 04:05:02;;;;;;;;;;;;;;;4.90;64.27;101425.47;6089059;23;1882;-96
2022/01/22 04:10:14;;;;;;;;;;;;;;;4.88;64.18;101435.47;6081215;23;1404;-96
2022/01/22 04:12:48;;;;;;;;;;;;;;;4.89;64.29;101434.47;6091714;23;1253;-96
2022/01/22 04:15:20;;;;;;;;;;;;;;;4.88;64.18;101429.28;6090056;23;1547;-96
2022/01/22 04:26:10;;;;;;;;;;;;;;;4.91;64.17;101426.28;6093041;23;1921;-96
2022/01/22 04:28:37;;;;;;;;;;;;;;;4.89;64.16;101425.63;6093840;23;1311;-96
2022/01/22 04:31:04;;;;;;;;;;;;;;;4.89;64.26;101425.63;6091896;23;1368;-96
2022/01/22 04:33:32;;;;;;;;;;;;;;;4.87;64.17;101415.09;6093106;23;1438;-96
2022/01/22 04:36:08;;;;;;;;;;;;;;;4.89;64.23;101406.94;6093687;23;1287;-96
2022/01/22 04:38:35;;;;;;;;;;;;;;;4.91;64.08;101397.78;6092915;23;1427;-96
2022/01/22 04:41:02;;;;;;;;;;;;;;;4.91;64.00;101411.13;6092874;23;1272;-96
2022/01/22 04:43:31;;;;;;;;;;;;;;;4.92;64.10;101406.63;6094397;23;1502;-96
2022/01/22 04:46:09;;;;;;;;;;;;;;;4.91;64.03;101400.44;6092912;23;1909;-96
2022/01/22 04:48:51;;;;;;;;;;;;;;;4.91;64.15;101397.78;6093689;23;1400;-96
2022/01/22 04:56:48;;;;;;;;;;;;;;;4.91;64.13;101416.47;6094411;23;1311;-96
2022/01/22 04:59:16;;;;;;;;;;;;;;;4.91;64.07;101419.13;6094317;23;1480;-96
2022/01/22 05:01:43;;;;;;;;;;;;;;;4.91;64.06;101412.94;6095424;23;1358;-96
2022/01/22 05:04:12;;;;;;;;;;;;;;;4.90;64.06;101427.28;6094961;23;1874;-96
2022/01/22 05:06:40;;;;;;;;;;;;;;;4.92;63.96;101417.31;6095130;23;1050;-96
2022/01/22 05:09:09;;;;;;;;;;;;;;;4.92;64.04;101410.13;6095336;23;1368;-96
2022/01/22 05:11:36;;;;;;;;;;;;;;;4.94;64.04;101417.94;6095555;23;1199;-96
2022/01/22 05:14:09;;;;;;;;;;;;;;;4.90;64.09;101427.28;6094781;23;1391;-96
2022/01/22 05:16:37;;;;;;;;;;;;;;;4.91;64.06;101426.28;6095302;23;1437;-96
2022/01/22 05:19:11;;;;;;;;;;;;;;;4.89;64.05;101429.13;6121392;23;871;-96
2022/01/22 05:21:40;;;;;;;;;;;;;;;4.91;64.00;101426.28;6095819;23;1319;-96
2022/01/22 05:24:15;;;;;;;;;;;;;;;4.90;63.73;101432.63;6094715;23;1901;-96
2022/01/22 05:27:10;;;;;;;;;;;;;;;4.91;64.02;101429.81;6094747;23;1224;-96
2022/01/22 05:32:36;;;;;;;;;;;;;;;4.90;63.93;101424.63;6080593;23;1399;-96
2022/01/22 05:37:50;;;;;;;;;;;;;;;4.90;64.04;101430.78;6120480;23;930;-96
2022/01/22 05:40:17;;;;;;;;;;;;;;;4.89;64.05;101433.63;6096241;23;1649;-96
2022/01/22 05:42:48;;;;;;;;;;;;;;;4.89;64.04;101437.13;6119992;23;1148;-96
2022/01/22 05:45:16;;;;;;;;;;;;;;;4.89;63.95;101437.13;6095154;23;1893;-96
2022/01/22 05:47:45;;;;;;;;;;;;;;;4.88;63.96;101432.81;6095682;23;1187;-96
2022/01/22 05:50:25;;;;;;;;;;;;;;;4.88;63.93;101424.81;6095567;23;1154;-96
2022/01/22 05:52:58;;;;;;;;;;;;;;;4.87;64.04;101422.28;6122082;23;867;-96
2022/01/22 05:59:35;;;;;;;;;;;;;;;4.87;64.07;101417.78;6095773;23;1510;-96
2022/01/22 06:01:16;;;;;;;;;;;;;;;4.87;64.10;101411.59;6096017;23;1293;-96
2022/01/22 06:03:43;;;;;;;;;;;;;;;4.86;64.10;101421.44;6095852;23;1014;-96
2022/01/22 06:06:10;;;;;;;;;;;;;;;4.87;63.90;101414.28;6094946;23;1897;-96
2022/01/22 06:08:46;;;;;;;;;;;;;;;4.86;64.06;101410.78;6096279;23;1222;-96
2022/01/22 06:11:21;;;;;;;;;;;;;;;4.84;64.03;101412.75;6120407;23;850;-96
2022/01/22 06:13:50;;;;;;;;;;;;;;;4.84;64.13;101406.59;6093269;23;1355;-96
2022/01/22 06:16:22;;;;;;;;;;;;;;;4.84;64.02;101396.75;6119527;23;997;-96
2022/01/22 06:18:52;;;;;;;;;;;;;;;4.80;64.24;101395.41;6095038;23;1416;-96
2022/01/22 06:21:26;;;;;;;;;;;;;;;4.82;64.07;101395.22;6094490;23;1227;-96
2022/01/22 06:23:55;;;;;;;;;;;;;;;4.81;64.26;101390.91;6094770;23;1350;-96
2022/01/22 06:26:23;;;;;;;;;;;;;;;4.81;64.04;101391.72;6095032;23;1905;-96
2022/01/22 06:28:51;;;;;;;;;;;;;;;4.81;64.21;101394.41;6094467;23;1550;-96
2022/01/22 06:31:18;;;;;;;;;;;;;;;4.82;64.20;101390.72;6095178;23;1261;-96
2022/01/22 06:33:49;;;;;;;;;;;;;;;4.82;63.98;101395.22;6121163;23;1021;-96
2022/01/22 06:36:25;;;;;;;;;;;;;;;4.80;63.99;101386.56;6120562;23;1406;-96
2022/01/22 06:39:08;;;;;;;;;;;;;;;4.81;64.12;101388.22;6095822;23;1485;-96
2022/01/22 06:41:44;;;;;;;;;;;;;;;4.79;63.79;101393.72;6096335;23;1292;-96
2022/01/22 06:44:13;;;;;;;;;;;;;;;4.78;64.13;101397.38;6096922;23;1379;-96
2022/01/22 06:46:43;;;;;;;;;;;;;;;4.78;64.09;101403.56;6095256;23;1870;-96
2022/01/22 06:49:18;;;;;;;;;;;;;;;4.78;64.12;101408.91;6095611;23;1304;-96
2022/01/22 06:51:49;;;;;;;;;;;;;;;4.78;63.99;101410.72;6095327;23;1393;-96
2022/01/22 06:54:26;;;;;;;;;;;;;;;4.78;64.19;101413.41;6120869;23;921;-96
2022/01/22 06:56:53;;;;;;;;;;;;;;;4.79;64.10;101415.06;6094370;23;1496;-96
2022/01/22 06:59:21;;;;;;;;;;;;;;;4.78;64.02;101418.75;6095991;23;1061;-96
2022/01/22 07:01:54;;;;;;;;;;;;;;;4.79;64.03;101415.06;6095350;23;1258;-96
2022/01/22 07:04:29;;;;;;;;;;;;;;;4.82;64.00;101413.91;6095071;23;1601;-96
2022/01/22 07:07:00;;;;;;;;;;;;;;;4.80;63.96;101411.41;6095060;23;1205;-96
2022/01/22 07:09:27;;;;;;;;;;;;;;;4.77;63.96;101401.91;6096288;23;1193;-96
2022/01/22 07:11:55;;;;;;;;;;;;;;;4.78;64.11;101406.22;6095050;23;1449;-96
2022/01/22 07:14:26;;;;;;;;;;;;;;;4.79;63.88;101401.72;6095761;23;1446;-96
2022/01/22 07:16:53;;;;;;;;;;;;;;;4.80;63.97;101407.91;6094490;23;1369;-96
2022/01/22 07:19:23;;;;;;;;;;;;;;;4.80;64.11;101410.59;6095503;23;1351;-96
2022/01/22 07:22:05;;;;;;;;;;;;;;;4.80;63.89;101418.59;6119910;23;946;-96
2022/01/22 07:24:37;;;;;;;;;;;;;;;4.79;63.89;101415.06;6095125;23;1920;-96
2022/01/22 07:27:08;;;;;;;;;;;;;;;4.79;63.94;101409.72;6095408;23;1366;-96
2022/01/22 07:29:42;;;;;;;;;;;;;;;4.78;64.06;101403.56;6119207;23;1136;-96
2022/01/22 07:32:28;;;;;;;;;;;;;;;4.78;64.02;101402.72;6094748;23;1354;-96
2022/01/22 07:35:02;;;;;;;;;;;;;;;4.79;64.01;101407.06;6095962;23;1332;-96
2022/01/22 07:37:30;;;;;;;;;;;;;;;4.79;63.89;101407.06;6096002;23;1292;-96
2022/01/22 07:39:59;;;;;;;;;;;;;;;4.77;63.88;101411.75;6095556;23;1231;-96
2022/01/22 07:42:28;;;;;;;;;;;;;;;4.77;63.93;101409.91;6121307;23;968;-96
2022/01/22 07:45:01;;;;;;;;;;;;;;;4.78;63.87;101406.22;6095786;23;1886;-96
2022/01/22 07:47:34;;;;;;;;;;;;;;;4.77;63.89;101409.06;6096040;23;1188;-96
2022/01/22 07:50:03;;;;;;;;;;;;;;;4.78;63.93;101406.22;6095698;23;1124;-96
2022/01/22 07:52:31;;;;;;;;;;;;;;;4.78;63.85;101410.72;6097236;23;1163;-96
2022/01/22 07:54:59;;;;;;;;;;;;;;;4.79;63.63;101401.72;6098248;23;1270;-96
2022/01/22 07:57:29;;;;;;;;;;;;;;;4.77;63.95;101390.38;6097398;23;1450;-96
2022/01/22 08:00:08;;;;;;;;;;;;;;;4.77;64.02;101395.72;6097565;23;1025;-96
2022/01/22 08:02:36;;;;;;;;;;;;;;;4.78;63.79;101387.53;6096631;23;1348;-96
2022/01/22 08:05:07;;;;;;;;;;;;;;;4.77;63.85;101387.72;6097190;23;1929;-96
2022/01/22 08:07:33;;;;;;;;;;;;;;;4.77;64.00;101385.88;6092182;23;1211;-96
2022/01/22 08:10:02;;;;;;;;;;;;;;;4.77;63.81;101385.88;6093481;23;1324;-96
2022/01/22 08:12:29;;;;;;;;;;;;;;;4.78;64.01;101386.72;6092733;23;1331;-96
2022/01/22 08:14:56;;;;;;;;;;;;;;;4.77;63.91;101391.22;6093593;23;1328;-96
2022/01/22 08:17:25;;;;;;;;;;;;;;;4.77;63.96;101387.72;6094077;23;1150;-96
2022/01/22 08:19:53;;;;;;;;;;;;;;;4.76;64.06;101400.22;6093249;23;1102;-96
2022/01/22 08:22:20;;;;;;;;;;;;;;;4.75;64.02;101403.03;6093358;23;1267;-96
2022/01/22 08:24:50;;;;;;;;;;;;;;;4.76;63.97;101396.69;6119133;23;1897;-96
2022/01/22 08:27:31;;;;;;;;;;;;;;;4.76;63.90;101394.91;6093274;23;1184;-96
2022/01/22 08:29:58;;;;;;;;;;;;;;;4.76;63.83;101396.69;6092405;23;1349;-96
2022/01/22 08:32:44;;;;;;;;;;;;;;;4.74;63.95;101391.53;6094154;23;1196;-96
2022/01/22 08:37:55;;;;;;;;;;;;;;;4.76;64.01;101388.69;6092687;23;1453;-96
2022/01/22 08:40:22;;;;;;;;;;;;;;;4.74;63.96;101390.72;6094175;23;1252;-96
2022/01/22 08:42:50;;;;;;;;;;;;;;;4.72;63.89;101388.19;6093411;23;1275;-96
2022/01/22 08:45:17;;;;;;;;;;;;;;;4.72;64.17;101388.19;6094309;23;1921;-96
2022/01/22 08:47:47;;;;;;;;;;;;;;;4.73;64.15;101386.34;6093617;23;1529;-96
2022/01/22 09:07:52;;;;;;;;;;;;;;;4.72;63.81;101404.19;6147804;23;1718;-94
2022/01/22 09:10:20;;;;;;;;;;;;;;;4.76;63.66;101413.56;6115461;23;1572;-93
2022/01/22 09:12:46;;;;;;;;;;;;;;;4.74;64.09;101422.75;6126307;23;1297;-93
2022/01/22 09:15:13;;;;;;;;;;;;;;;4.75;63.95;101427.91;6119888;23;1386;-94
2022/01/22 09:17:39;;;;;;;;;;;;;;;4.74;64.01;101430.75;6121539;23;1387;-94
2022/01/22 09:20:09;;;;;;;;;;;;;;;4.75;63.98;101427.06;6125646;23;1205;-93
2022/01/22 09:22:36;;;;;;;;;;;;;;;4.75;63.99;101427.91;6089405;23;1333;-93
2022/01/22 09:25:03;;;;;;;;;;;;;;;4.75;63.79;101419.06;6110290;23;1909;-95
2022/01/22 09:30:31;;;;;;;;;;;;;;;4.76;63.91;101420.72;6092184;23;1069;-94
2022/01/22 09:33:00;;;;;;;;;;;;;;;4.77;63.75;101412.56;6085708;23;1209;-96
2022/01/22 09:35:29;;;;;;;;;;;;;;;4.77;63.79;101407.22;6090738;23;1381;-95
2022/01/22 09:37:57;;;;;;;;;;;;;;;4.78;63.93;101411.56;6089319;23;1347;-94
2022/01/22 09:40:23;;;;;;;;;;;;;;;4.78;63.79;101411.56;6058611;23;1320;-94
2022/01/22 09:42:50;;;;;;;;;;;;;;;4.77;63.86;101401.91;6062304;23;1378;-96
2022/01/22 09:45:19;;;;;;;;;;;;;;;4.78;63.79;101403.56;6081838;23;1885;-94
2022/01/22 09:47:46;;;;;;;;;;;;;;;4.78;63.90;101390.22;6083168;23;1170;-95
2022/01/22 09:55:40;;;;;;;;;;;;;;;4.77;63.95;101401.06;6081154;23;1359;-96
2022/01/22 09:58:07;;;;;;;;;;;;;;;4.79;63.89;101396.38;6077988;23;1373;-93
2022/01/22 10:00:33;;;;;;;;;;;;;;;4.81;63.82;101397.06;6079768;23;1382;-95
2022/01/22 10:03:09;;;;;;;;;;;;;;;4.80;63.77;101399.91;6079517;23;1343;-93
2022/01/22 10:05:35;;;;;;;;;;;;;;;4.79;63.85;101401.72;6078044;23;1905;-94
2022/01/22 10:08:02;;;;;;;;;;;;;;;4.82;63.95;101397.91;6054100;23;1282;-94
2022/01/22 10:10:29;;;;;;;;;;;;;;;4.82;63.96;101392.56;6058101;23;1262;-94
2022/01/22 10:12:56;;;;;;;;;;;;;;;4.80;63.67;101384.72;6053087;23;1174;-94
2022/01/22 10:15:23;;;;;;;;;;;;;;;4.81;63.79;101382.88;6056159;23;1330;-94
2022/01/22 10:17:54;;;;;;;;;;;;;;;4.81;63.90;101389.06;6058194;23;1212;-96
2022/01/22 10:20:23;;;;;;;;;;;;;;;4.82;63.67;101392.56;6081073;23;1037;-96
2022/01/22 10:22:50;;;;;;;;;;;;;;;4.84;63.68;101396.75;6113817;23;1338;-94
2022/01/22 10:25:29;;;;;;;;;;;;;;;4.84;63.73;101403.91;6117936;23;1869;-95
2022/01/22 10:28:23;;;;;;;;;;;;;;;4.84;63.86;101401.25;6141400;23;1158;-94
2022/01/22 10:30:52;;;;;;;;;;;;;;;4.83;63.67;101394.25;6119387;23;1278;-94
2022/01/22 10:33:30;;;;;;;;;;;;;;;4.82;63.80;101390.72;6116627;23;1292;-94
2022/01/22 10:35:59;;;;;;;;;;;;;;;4.82;63.72;101389.88;6123779;23;1466;-94
2022/01/22 10:38:25;;;;;;;;;;;;;;;4.82;63.79;101388.03;6120642;23;1164;-94
2022/01/22 10:40:55;;;;;;;;;;;;;;;4.82;63.97;101389.88;6114515;23;1346;-94
2022/01/22 10:43:28;;;;;;;;;;;;;;;4.82;63.74;101393.38;6118985;23;1264;-96
2022/01/22 10:45:59;;;;;;;;;;;;;;;4.84;63.81;101409.25;6115051;23;1917;-94
2022/01/22 10:48:29;;;;;;;;;;;;;;;4.83;63.88;101407.59;6114527;23;1324;-94
2022/01/22 10:50:56;;;;;;;;;;;;;;;4.84;63.81;101410.09;6112373;23;1206;-95
2022/01/22 10:53:26;;;;;;;;;;;;;;;4.85;63.72;101405.56;6115498;23;1322;-93
2022/01/22 10:55:52;;;;;;;;;;;;;;;4.83;63.88;101413.75;6116052;23;1383;-93
2022/01/22 11:01:03;;;;;;;;;;;;;;;4.83;63.78;101408.44;6112706;23;1321;-94
2022/01/22 11:03:30;;;;;;;;;;;;;;;4.86;63.80;101399.25;6106890;23;1355;-93
2022/01/22 11:05:58;;;;;;;;;;;;;;;4.84;63.85;101398.56;6103679;23;1913;-93
2022/01/22 11:08:25;;;;;;;;;;;;;;;4.84;63.86;101387.91;6149472;23;1141;-93
2022/01/22 11:11:00;;;;;;;;;;;;;;;4.83;63.89;101386.25;6152472;23;1526;-95
2022/01/22 11:16:17;;;;;;;;;;;;;;;4.85;63.83;101395.72;6164529;23;1956;-96
2022/01/22 11:18:44;;;;;;;;;;;;;;;4.84;64.02;101393.25;6177580;23;890;-96
2022/01/22 11:21:11;;;;;;;;;;;;;;;4.85;64.02;101394.91;6151283;23;1402;-96
2022/01/22 11:23:38;;;;;;;;;;;;;;;4.84;63.91;101403.91;6143812;23;1406;-96
2022/01/22 11:26:05;;;;;;;;;;;;;;;4.84;63.98;101402.06;6150125;23;1943;-96
2022/01/22 11:28:35;;;;;;;;;;;;;;;4.85;63.89;101401.06;6150745;23;1404;-96
2022/01/22 11:31:02;;;;;;;;;;;;;;;4.85;63.72;101408.25;6177458;23;846;-96
2022/01/22 11:33:29;;;;;;;;;;;;;;;4.84;64.05;101399.41;6150401;23;1206;-96
2022/01/22 11:35:56;;;;;;;;;;;;;;;4.83;64.10;101405.75;6151278;23;1157;-96
2022/01/22 11:38:23;;;;;;;;;;;;;;;4.84;64.04;101406.59;6151876;23;1190;-96
2022/01/22 11:40:50;;;;;;;;;;;;;;;4.84;64.10;101406.59;6152668;23;1386;-96
2022/01/22 11:43:34;;;;;;;;;;;;;;;4.84;64.03;101410.09;6153431;23;1372;-96
2022/01/22 11:46:02;;;;;;;;;;;;;;;4.82;63.99;101413.91;6152822;23;1923;-96
2022/01/22 11:48:29;;;;;;;;;;;;;;;4.85;64.13;101429.59;6152823;23;1285;-96
2022/01/22 11:50:56;;;;;;;;;;;;;;;4.85;64.13;101435.78;6152255;23;1318;-96
2022/01/22 11:53:23;;;;;;;;;;;;;;;4.85;64.00;101432.28;6152744;23;1454;-96
2022/01/22 11:55:50;;;;;;;;;;;;;;;4.85;64.00;101433.09;6152668;23;1211;-96
2022/01/22 11:58:17;;;;;;;;;;;;;;;4.85;63.84;101422.44;6154473;23;1256;-96
2022/01/22 12:00:44;;;;;;;;;;;;;;;4.86;63.88;101421.44;6152337;23;1231;-96
2022/01/22 12:03:15;;;;;;;;;;;;;;;4.87;63.91;101428.44;6155200;23;1223;-96
2022/01/22 12:06:02;;;;;;;;;;;;;;;4.87;64.00;101432.94;6157930;23;1923;-96
2022/01/22 12:08:33;;;;;;;;;;;;;;;4.88;63.92;101430.13;6157993;23;1046;-96
2022/01/22 12:25:30;;;;;;;;;;;;;;;4.95;63.62;101414.31;6172921;23;1115;-96
2022/01/22 12:37:59;;;;;;;;;;;;;;;4.95;63.60;101393.78;6184297;23;822;-96
2022/01/22 12:50:14;;;;;;;;;;;;;;;5.00;63.56;101398.66;6186430;23;810;-96
2022/01/22 13:08:58;;;;;;;;;;;;;;;5.01;63.72;101422.50;6178578;23;601;-95
2022/01/22 13:11:59;;;;;;;;;;;;;;;5.02;63.71;101415.31;6174660;23;633;-95
2022/01/22 13:14:51;;;;;;;;;;;;;;;5.01;63.70;101419.00;6174488;23;605;-95
2022/01/22 13:17:50;;;;;;;;;;;;;;;5.03;63.61;101400.13;6174616;23;646;-95
2022/01/22 13:23:16;;;;;;;;;;;;;;;5.03;63.65;101406.34;6150849;23;1341;-95
2022/01/22 13:25:44;;;;;;;;;;;;;;;5.03;63.66;101414.34;6149271;23;1495;-94
2022/01/22 13:28:16;;;;;;;;;;;;;;;5.03;63.60;101409.00;6149858;23;1877;-94
2022/01/22 13:30:48;;;;;;;;;;;;;;;5.01;63.64;101397.63;6149192;23;1357;-95
2022/01/22 13:33:33;;;;;;;;;;;;;;;5.03;63.60;101400.13;6150932;23;1316;-95
2022/01/22 13:36:18;;;;;;;;;;;;;;;5.02;63.67;101396.63;6149368;23;1369;-95
2022/01/22 13:53:30;;;;;;;;;;;;;;;5.04;63.70;101383.13;6150257;23;1164;-95
2022/01/22 13:56:12;;;;;;;;;;;;;;;5.03;63.73;101384.97;6174004;23;983;-95
2022/01/22 13:58:45;;;;;;;;;;;;;;;5.03;63.78;101384.97;6152170;23;1347;-95
2022/01/22 14:01:19;;;;;;;;;;;;;;;5.04;63.75;101385.78;6150631;23;1283;-94
2022/01/22 14:04:00;;;;;;;;;;;;;;;5.04;63.72;101383.13;6156383;23;1379;-95
2022/01/22 14:06:32;;;;;;;;;;;;;;;5.05;63.66;101379.44;6157543;23;1866;-96
2022/01/22 14:09:03;;;;;;;;;;;;;;;5.06;63.71;101370.44;6180686;23;1337;-95
2022/01/22 14:11:30;;;;;;;;;;;;;;;5.03;63.85;101370.75;6206046;23;979;-94
2022/01/22 14:13:57;;;;;;;;;;;;;;;5.04;63.98;101377.78;6180188;23;1320;-94
2022/01/22 14:19:18;;;;;;;;;;;;;;;5.00;63.77;101364.75;6179148;23;1482;-94
2022/01/22 14:24:38;;;;;;;;;;;;;;;5.00;63.86;101338.06;6180807;23;1449;-95
2022/01/22 14:27:14;;;;;;;;;;;;;;;5.02;63.72;101335.22;6205728;23;1965;-94
2022/01/22 14:29:43;;;;;;;;;;;;;;;5.03;63.81;101341.38;6182982;23;1425;-95
2022/01/22 14:32:16;;;;;;;;;;;;;;;5.01;63.87;101355.75;6180338;23;1089;-96
2022/01/22 14:35:02;;;;;;;;;;;;;;;5.03;63.81;101357.41;6183611;23;1524;-94
2022/01/22 14:37:33;;;;;;;;;;;;;;;5.03;63.80;101350.25;6184551;23;1254;-95
2022/01/22 14:51:12;;;;;;;;;;;;;;;5.01;63.98;101387.78;6204060;23;1076;-94
2022/01/22 14:53:40;;;;;;;;;;;;;;;5.01;63.83;101390.47;6182406;23;1293;-95
2022/01/22 14:59:01;;;;;;;;;;;;;;;5.01;63.78;101387.78;6175220;23;1567;-95
2022/01/22 15:01:49;;;;;;;;;;;;;;;5.03;63.83;101394.78;6207006;23;1234;-96
2022/01/22 15:10:08;;;;;;;;;;;;;;;5.03;63.86;101403.66;6208885;23;834;-94
2022/01/22 15:12:40;;;;;;;;;;;;;;;5.04;63.96;101399.16;6179437;23;1383;-94
2022/01/22 15:15:11;;;;;;;;;;;;;;;5.05;63.98;101404.31;6208504;23;969;-94
2022/01/22 15:17:53;;;;;;;;;;;;;;;5.07;63.82;101405.00;6163954;23;3758;-96
2022/01/22 15:29:52;;;;;;;;;;;;;;;5.09;63.85;101415.50;6151765;23;883;-96
2022/01/22 15:32:38;;;;;;;;;;;;;;;5.06;63.84;101408.66;6156992;23;4057;-96
2022/01/22 15:35:13;;;;;;;;;;;;;;;5.07;63.75;101420.19;6184410;23;1285;-96
2022/01/22 15:40:36;;;;;;;;;;;;;;;5.09;63.94;101412.81;6187070;23;1410;-96
2022/01/22 15:43:09;;;;;;;;;;;;;;;5.07;63.86;101406.84;6184055;23;893;-96
2022/01/22 15:45:37;;;;;;;;;;;;;;;5.07;63.84;101407.66;6176224;23;1267;-96
2022/01/22 15:48:05;;;;;;;;;;;;;;;5.07;63.83;101401.50;6180101;23;1975;-96
2022/01/22 15:50:33;;;;;;;;;;;;;;;5.08;63.89;101405.81;6179312;23;1615;-96
2022/01/22 15:53:00;;;;;;;;;;;;;;;5.09;63.69;101404.81;6178096;23;1337;-96
2022/01/22 15:55:28;;;;;;;;;;;;;;;5.09;63.82;101396.81;6176654;23;1159;-96
2022/01/22 15:58:05;;;;;;;;;;;;;;;5.10;63.56;101393.97;6182899;23;1278;-96
2022/01/22 16:00:41;;;;;;;;;;;;;;;5.09;63.58;101400.34;6203641;23;1335;-96
2022/01/22 16:03:17;;;;;;;;;;;;;;;5.10;63.75;101402.00;6186594;23;1376;-96
2022/01/22 16:05:50;;;;;;;;;;;;;;;5.09;63.91;101405.69;6211247;23;1326;-96
2022/01/22 16:08:29;;;;;;;;;;;;;;;5.08;64.04;101413.84;6210188;23;1905;-96
2022/01/22 16:11:09;;;;;;;;;;;;;;;5.07;63.90;101412.16;6185190;23;1303;-96
2022/01/22 16:13:41;;;;;;;;;;;;;;;5.06;63.99;101408.66;6210199;23;1087;-96
2022/01/22 16:16:11;;;;;;;;;;;;;;;5.06;63.93;101421.16;6186632;23;1134;-96
2022/01/22 16:18:40;;;;;;;;;;;;;;;5.06;63.88;101424.69;6187795;23;1319;-96
2022/01/22 16:21:42;;;;;;;;;;;;;;;5.07;63.92;101431.69;6213247;23;1623;-96
2022/01/22 16:24:12;;;;;;;;;;;;;;;5.06;64.15;101430.03;6213270;23;897;-96
2022/01/22 16:26:44;;;;;;;;;;;;;;;5.07;63.87;101430.88;6182057;23;1944;-96
2022/01/22 16:32:05;;;;;;;;;;;;;;;5.05;64.01;101448.88;6184343;23;1830;-96
2022/01/22 16:34:37;;;;;;;;;;;;;;;5.05;63.82;101455.03;6181453;23;1146;-96
2022/01/22 18:02:44;;;;;;;;;;;;;;;4.91;64.15;101469.88;6140353;23;2215;-94
2022/01/22 18:07:54;;;;;;;;;;;;;;;4.93;64.10;101481.19;6124282;23;2155;-95
2022/01/22 18:13:01;;;;;;;;;;;;;;;4.93;64.05;101483.03;6087889;23;1223;-95
2022/01/22 18:15:27;;;;;;;;;;;;;;;4.89;64.22;101477.19;6082533;23;1214;-95
2022/01/22 18:17:56;;;;;;;;;;;;;;;4.89;64.15;101468.34;6088803;23;1293;-95
2022/01/22 18:20:23;;;;;;;;;;;;;;;4.89;64.39;101463.84;6092983;23;1260;-96
2022/01/22 18:22:51;;;;;;;;;;;;;;;4.90;63.96;101456.66;6095825;23;1274;-96
2022/01/22 18:25:19;;;;;;;;;;;;;;;4.91;64.09;101459.19;6092675;23;1125;-96
2022/01/22 18:27:46;;;;;;;;;;;;;;;4.89;64.14;101455.81;6093649;23;1905;-96
2022/01/22 18:30:13;;;;;;;;;;;;;;;4.90;64.11;101459.31;6087602;23;1366;-95